Terminal Aerodrome Forecast
Issued by NWS

Home | Current Version | Previous Version | Text Only | Print | Product List | Glossary On
Versions: 1 2 3 4 5 6 7 8 9 10 11 12
000
FTUS43 KFGF 190500
TAFTVF
TAF
KTVF 190522Z 1906/2006 14022G29KT P6SM OVC050
      TEMPO 1908/1910 -SHRA
     FM191000 16015KT P6SM FEW040
     FM191600 25018G24KT P6SM SCT025
      AMD LTD TO CLD VIS AND WIND=

USA.gov is the U.S. government's official web portal to all federal, state and local government web resources and services.